createdAt,value
2022-09-27T00:01:04.880Z,8.73
2022-09-27T00:03:33.115Z,10.85
2022-09-27T00:06:02.677Z,8.80
2022-09-27T00:08:30.243Z,8.63
2022-09-27T00:11:01.983Z,9.32
2022-09-27T00:13:29.657Z,9.02
2022-09-27T00:16:00.988Z,8.82
2022-09-27T00:20:56.146Z,9.05
2022-09-27T00:23:23.837Z,9.32
2022-09-27T00:26:00.752Z,10.23
2022-09-27T00:28:28.725Z,9.32
2022-09-27T00:30:56.408Z,9.55
2022-09-27T00:33:24.048Z,8.95
2022-09-27T00:35:51.745Z,9.98
2022-09-27T00:38:19.494Z,10.55
2022-09-27T00:40:47.072Z,11.07
2022-09-27T00:43:22.542Z,11.32
2022-09-27T00:45:57.961Z,9.75
2022-09-27T00:48:27.991Z,11.23
2022-09-27T00:50:57.719Z,10.98
2022-09-27T00:53:29.926Z,11.73
2022-09-27T00:56:02.391Z,13.15
2022-09-27T00:58:57.977Z,13.57
2022-09-27T01:01:25.592Z,11.98
2022-09-27T01:04:06.505Z,10.80
2022-09-27T01:06:34.045Z,11.23
2022-09-27T01:09:01.698Z,10.77
2022-09-27T01:11:36.697Z,12.00
2022-09-27T01:14:16.439Z,13.30
2022-09-27T01:16:53.481Z,13.30
2022-09-27T01:19:34.579Z,11.50
2022-09-27T01:22:18.708Z,11.20
2022-09-27T01:25:12.228Z,11.95
2022-09-27T01:27:51.440Z,11.65
2022-09-27T01:30:34.029Z,13.38
2022-09-27T01:33:12.724Z,12.25
2022-09-27T01:36:02.298Z,11.80
2022-09-27T01:38:41.890Z,12.35
2022-09-27T01:41:17.038Z,12.82
2022-09-27T01:44:07.190Z,12.27
2022-09-27T01:46:42.441Z,54.30
2022-09-27T01:49:18.572Z,22.85
2022-09-27T01:52:08.811Z,27.30
2022-09-27T01:54:48.317Z,27.13
2022-09-27T01:57:31.206Z,15.77
2022-09-27T02:00:02.111Z,14.63
2022-09-27T02:02:46.677Z,13.27
2022-09-27T02:05:50.206Z,14.43
2022-09-27T02:08:37.069Z,14.60
2022-09-27T02:11:14.844Z,18.20
2022-09-27T02:13:53.453Z,24.95
2022-09-27T02:16:47.084Z,38.55
2022-09-27T02:19:24.877Z,46.70
2022-09-27T02:22:10.288Z,43.20
2022-09-27T02:24:42.916Z,40.85
2022-09-27T02:27:14.278Z,38.90
2022-09-27T02:32:11.700Z,46.20
2022-09-27T02:34:39.436Z,51.60
2022-09-27T02:37:06.973Z,58.00
2022-09-27T02:39:35.366Z,59.58
2022-09-27T02:42:06.004Z,40.92
2022-09-27T02:44:34.308Z,38.28
2022-09-27T02:47:40.005Z,34.65
2022-09-27T02:50:26.834Z,36.53
2022-09-27T02:53:19.143Z,34.13
2022-09-27T02:56:28.864Z,35.03
2022-09-27T02:59:14.862Z,32.40
2022-09-27T03:02:30.671Z,34.53
2022-09-27T03:05:25.785Z,34.72
2022-09-27T03:07:53.374Z,37.53
2022-09-27T03:10:26.222Z,36.00
2022-09-27T03:12:54.568Z,44.38
2022-09-27T03:15:22.117Z,42.30
2022-09-27T03:18:10.708Z,45.92
2022-09-27T03:20:57.112Z,48.38
2022-09-27T03:23:27.772Z,39.63
2022-09-27T03:25:55.916Z,35.33
2022-09-27T03:28:24.581Z,39.83
2022-09-27T03:30:52.547Z,34.85
2022-09-27T03:33:40.805Z,31.63
2022-09-27T03:36:12.470Z,26.38
2022-09-27T03:38:40.488Z,26.40
2022-09-27T03:41:11.783Z,27.88
2022-09-27T03:43:41.898Z,28.60
2022-09-27T03:46:09.516Z,26.50
2022-09-27T03:48:37.445Z,28.23
2022-09-27T03:51:05.191Z,22.95
2022-09-27T03:53:32.886Z,22.33
2022-09-27T03:56:00.893Z,24.83
2022-09-27T03:58:29.212Z,33.70
2022-09-27T04:00:56.761Z,31.75
2022-09-27T04:03:24.929Z,32.33
2022-09-27T04:06:11.437Z,30.63
2022-09-27T04:08:42.925Z,33.42
2022-09-27T04:11:12.182Z,30.85
2022-09-27T04:13:44.684Z,26.75
2022-09-27T04:16:13.201Z,25.20
2022-09-27T04:18:50.930Z,29.80
2022-09-27T04:21:39.317Z,19.88
2022-09-27T04:24:08.731Z,17.20
2022-09-27T04:26:37.308Z,17.92
2022-09-27T04:29:11.407Z,18.38
2022-09-27T04:31:44.593Z,19.35
2022-09-27T04:34:51.106Z,18.35
2022-09-27T04:37:23.481Z,18.30
2022-09-27T04:39:54.901Z,19.10
2022-09-27T04:42:22.412Z,18.00
2022-09-27T04:44:50.016Z,18.80
2022-09-27T04:47:18.598Z,20.50
2022-09-27T04:49:46.121Z,18.80
2022-09-27T04:52:15.598Z,19.67
2022-09-27T04:54:43.432Z,19.40
2022-09-27T04:57:12.971Z,19.70
2022-09-27T04:59:41.715Z,18.25
2022-09-27T05:02:09.983Z,18.90
2022-09-27T05:04:59.976Z,16.17
2022-09-27T05:07:34.333Z,13.73
2022-09-27T05:10:07.157Z,14.05
2022-09-27T05:12:35.799Z,12.02
2022-09-27T05:15:04.752Z,13.10
2022-09-27T05:17:52.511Z,12.48
2022-09-27T05:20:32.299Z,13.30
2022-09-27T05:23:08.302Z,13.13
2022-09-27T05:25:37.270Z,13.95
2022-09-27T05:28:05.643Z,14.77
2022-09-27T05:30:33.594Z,17.95
2022-09-27T05:33:12.156Z,17.38
2022-09-27T05:35:55.398Z,15.50
2022-09-27T05:38:26.219Z,18.42
2022-09-27T05:40:57.233Z,17.33
2022-09-27T05:43:25.646Z,14.52
2022-09-27T05:45:54.001Z,13.15
2022-09-27T05:48:23.621Z,14.75
2022-09-27T05:51:01.646Z,16.30
2022-09-27T05:53:32.575Z,15.05
2022-09-27T05:56:04.234Z,17.48
2022-09-27T05:58:50.386Z,14.60
2022-09-27T06:01:20.085Z,16.85
2022-09-27T06:04:06.186Z,16.13
2022-09-27T06:07:09.320Z,16.73
2022-09-27T06:09:36.865Z,16.98
2022-09-27T06:12:04.639Z,14.43
2022-09-27T06:14:32.393Z,15.77
2022-09-27T06:17:05.565Z,15.70
2022-09-27T06:19:35.899Z,16.08
2022-09-27T06:22:03.589Z,18.02
2022-09-27T06:24:41.909Z,17.55
2022-09-27T06:27:18.864Z,19.33
2022-09-27T06:30:20.477Z,17.80
2022-09-27T06:32:59.049Z,19.40
2022-09-27T06:35:38.813Z,19.58
2022-09-27T06:38:09.045Z,18.15
2022-09-27T06:40:39.446Z,17.83
2022-09-27T06:43:20.024Z,14.00
2022-09-27T06:46:13.825Z,12.40
2022-09-27T06:49:20.121Z,12.20
2022-09-27T06:51:49.665Z,13.02
2022-09-27T06:54:17.209Z,13.52
2022-09-27T06:56:47.274Z,16.15
2022-09-27T06:59:33.751Z,19.00
2022-09-27T07:02:19.785Z,27.70
2022-09-27T07:04:59.169Z,24.65
2022-09-27T07:07:40.218Z,20.83
2022-09-27T07:10:10.028Z,17.58
2022-09-27T07:12:38.537Z,14.80
2022-09-27T07:15:06.853Z,15.40
2022-09-27T07:17:37.518Z,15.40
2022-09-27T07:20:05.810Z,13.65
2022-09-27T07:22:33.457Z,16.40
2022-09-27T07:25:04.138Z,16.03
2022-09-27T07:27:33.217Z,14.40
2022-09-27T07:30:01.550Z,15.02
2022-09-27T07:32:29.257Z,15.18
2022-09-27T07:34:56.801Z,17.42
2022-09-27T07:37:24.460Z,18.77
2022-09-27T07:39:52.622Z,24.23
2022-09-27T07:42:20.758Z,25.08
2022-09-27T07:44:52.012Z,25.40
2022-09-27T07:47:39.635Z,29.10
2022-09-27T07:50:17.265Z,30.58
2022-09-27T07:52:55.613Z,29.25
2022-09-27T07:55:35.047Z,29.05
2022-09-27T07:58:30.648Z,23.88
2022-09-27T08:01:02.681Z,28.75
2022-09-27T08:03:31.334Z,24.23
2022-09-27T08:06:02.311Z,24.80
2022-09-27T08:08:30.976Z,24.67
2022-09-27T08:11:01.177Z,26.70
2022-09-27T08:13:31.494Z,27.77
2022-09-27T08:16:02.184Z,25.92
2022-09-27T08:18:34.114Z,22.77
2022-09-27T08:21:21.974Z,20.90
2022-09-27T08:24:11.239Z,23.40
2022-09-27T08:27:11.499Z,21.83
2022-09-27T08:29:53.893Z,22.05
2022-09-27T08:32:23.471Z,24.85
2022-09-27T08:34:52.320Z,24.48
2022-09-27T08:37:22.051Z,26.38
2022-09-27T08:39:50.920Z,28.83
2022-09-27T08:42:25.337Z,26.70
2022-09-27T08:45:04.503Z,22.45
2022-09-27T08:47:39.541Z,25.90
2022-09-27T08:50:29.202Z,31.50
2022-09-27T08:53:19.559Z,22.77
2022-09-27T08:55:48.400Z,31.73
2022-09-27T08:58:26.539Z,28.23
2022-09-27T09:00:57.752Z,25.98
2022-09-27T09:03:30.291Z,25.52
2022-09-27T09:06:16.661Z,25.75
2022-09-27T09:09:08.514Z,25.17
2022-09-27T09:12:05.828Z,25.25
2022-09-27T09:15:00.786Z,22.85
2022-09-27T09:18:03.088Z,21.38
2022-09-27T09:21:21.192Z,20.95
2022-09-27T09:24:08.256Z,19.40
2022-09-27T09:26:45.860Z,25.35
2022-09-27T09:29:43.933Z,19.63
2022-09-27T09:32:23.413Z,23.42
2022-09-27T09:35:06.613Z,17.65
2022-09-27T09:37:41.212Z,16.63
2022-09-27T09:40:20.404Z,16.63
2022-09-27T09:43:14.519Z,16.65
2022-09-27T09:46:46.757Z,20.48
2022-09-27T09:49:18.592Z,21.75
2022-09-27T09:51:51.322Z,23.27
2022-09-27T09:54:42.640Z,21.73
2022-09-27T09:57:25.936Z,33.95
2022-09-27T09:59:58.569Z,20.20
2022-09-27T10:02:26.076Z,17.88
2022-09-27T10:04:58.353Z,17.98
2022-09-27T10:07:26.276Z,17.02
2022-09-27T10:12:52.548Z,20.65
2022-09-27T10:17:54.475Z,20.23
2022-09-27T10:20:45.859Z,20.48
2022-09-27T10:23:21.283Z,22.58
2022-09-27T10:26:09.236Z,45.25
2022-09-27T10:28:47.620Z,36.15
2022-09-27T10:31:19.917Z,21.75
2022-09-27T10:34:05.333Z,55.90
2022-09-27T10:36:40.029Z,20.13
2022-09-27T10:39:21.359Z,22.40
2022-09-27T10:44:27.824Z,26.20
2022-09-27T10:47:23.054Z,26.50
2022-09-27T10:50:22.795Z,19.48
2022-09-27T10:53:12.357Z,22.08
2022-09-27T10:55:41.269Z,19.05
2022-09-27T10:58:20.253Z,20.27
2022-09-27T11:00:56.619Z,23.65
2022-09-27T11:03:25.725Z,28.55
2022-09-27T11:05:54.915Z,15.70
2022-09-27T11:08:30.626Z,15.23
2022-09-27T11:11:07.190Z,17.75
2022-09-27T11:13:37.999Z,18.08
2022-09-27T11:16:22.592Z,16.05
2022-09-27T11:19:18.519Z,15.87
2022-09-27T11:22:08.609Z,15.10
2022-09-27T11:24:58.347Z,17.40
2022-09-27T11:27:34.627Z,19.48
2022-09-27T11:30:13.086Z,19.17
2022-09-27T11:33:55.089Z,18.60
2022-09-27T11:37:05.291Z,17.80
2022-09-27T11:39:52.967Z,17.98
2022-09-27T11:43:05.807Z,16.63
2022-09-27T11:46:14.403Z,17.38
2022-09-27T11:48:41.010Z,15.50
2022-09-27T11:51:27.897Z,16.27
2022-09-27T11:54:13.965Z,16.88
2022-09-27T11:56:58.137Z,17.92
2022-09-27T11:59:47.816Z,19.88
2022-09-27T12:02:39.858Z,21.30
2022-09-27T12:05:28.891Z,21.77
2022-09-27T12:08:27.431Z,19.83
2022-09-27T12:11:01.952Z,17.67
2022-09-27T12:13:37.074Z,15.02
2022-09-27T12:16:04.998Z,14.75
2022-09-27T12:18:39.175Z,14.05
2022-09-27T12:21:16.889Z,19.08
2022-09-27T12:23:44.396Z,14.02
2022-09-27T12:26:35.927Z,14.10
2022-09-27T12:29:45.325Z,16.85
2022-09-27T12:32:20.998Z,21.70
2022-09-27T12:34:56.828Z,22.08
2022-09-27T12:37:36.277Z,25.98
2022-09-27T12:40:16.687Z,21.92
2022-09-27T12:42:49.354Z,16.50
2022-09-27T12:45:58.133Z,15.10
2022-09-27T12:48:41.999Z,14.10
2022-09-27T12:51:11.913Z,14.50
2022-09-27T12:54:10.911Z,15.77
2022-09-27T12:57:32.538Z,17.02
2022-09-27T13:00:05.794Z,22.95
2022-09-27T13:03:14.593Z,26.30
2022-09-27T13:06:22.229Z,16.65
2022-09-27T13:09:16.214Z,15.73
2022-09-27T13:12:01.600Z,20.77
2022-09-27T13:14:35.610Z,23.13
2022-09-27T13:17:03.246Z,19.38
2022-09-27T13:19:42.628Z,15.70
2022-09-27T13:22:26.964Z,20.38
2022-09-27T13:25:54.319Z,16.20
2022-09-27T13:29:03.311Z,16.42
2022-09-27T13:32:19.172Z,18.10
2022-09-27T13:35:33.817Z,19.67
2022-09-27T13:38:22.756Z,19.13
2022-09-27T13:40:51.164Z,19.67
2022-09-27T13:44:05.407Z,18.15
2022-09-27T13:47:13.356Z,17.02
2022-09-27T13:49:42.212Z,17.52
2022-09-27T13:52:15.428Z,19.10
2022-09-27T13:54:56.227Z,21.17
2022-09-27T13:57:46.008Z,20.77
2022-09-27T14:00:18.831Z,21.45
2022-09-27T14:03:05.265Z,20.98
2022-09-27T14:05:41.465Z,22.13
2022-09-27T14:08:25.961Z,24.02
2022-09-27T14:10:53.729Z,22.15
2022-09-27T14:13:21.888Z,20.63
2022-09-27T14:16:00.032Z,20.27
2022-09-27T14:18:27.745Z,22.40
2022-09-27T14:20:56.583Z,22.27
2022-09-27T14:23:50.937Z,24.10
2022-09-27T14:26:28.025Z,24.52
2022-09-27T14:28:55.845Z,21.25
2022-09-27T14:31:31.390Z,19.75
2022-09-27T14:34:06.563Z,17.52
2022-09-27T14:36:52.781Z,17.80
2022-09-27T14:39:23.448Z,18.25
2022-09-27T14:41:52.940Z,16.52
2022-09-27T14:44:23.621Z,17.05
2022-09-27T14:47:11.424Z,17.92
2022-09-27T14:49:47.400Z,21.33
2022-09-27T14:52:21.948Z,27.20
2022-09-27T14:54:57.292Z,25.33
2022-09-27T14:57:26.258Z,25.48
2022-09-27T14:59:54.021Z,22.85
2022-09-27T15:02:22.576Z,18.40
2022-09-27T15:04:51.437Z,14.43
2022-09-27T15:07:19.845Z,13.95
2022-09-27T15:09:48.033Z,13.95
2022-09-27T15:12:23.015Z,13.68
2022-09-27T15:14:54.114Z,14.70
2022-09-27T15:17:22.111Z,16.50
2022-09-27T15:19:57.641Z,16.98
2022-09-27T15:22:34.596Z,18.05
2022-09-27T15:25:19.355Z,18.27
2022-09-27T15:27:49.200Z,18.30
2022-09-27T15:30:21.663Z,17.05
2022-09-27T15:32:51.737Z,19.92
2022-09-27T15:35:23.399Z,22.80
2022-09-27T15:37:51.251Z,20.63
2022-09-27T15:40:19.787Z,20.00
2022-09-27T15:43:01.528Z,42.85
2022-09-27T15:45:31.130Z,46.65
2022-09-27T15:48:06.649Z,26.13
2022-09-27T15:50:34.420Z,18.95
2022-09-27T15:53:04.100Z,19.63
2022-09-27T15:55:31.718Z,20.20
2022-09-27T15:58:08.344Z,21.20
2022-09-27T16:00:36.402Z,21.65
2022-09-27T16:03:04.212Z,21.35
2022-09-27T16:05:33.364Z,22.20
2022-09-27T16:08:01.304Z,22.15
2022-09-27T16:10:37.373Z,23.13
2022-09-27T16:13:05.034Z,22.88
2022-09-27T16:15:32.637Z,21.20
2022-09-27T16:18:00.303Z,25.88
2022-09-27T16:20:28.137Z,21.38
2022-09-27T16:22:56.087Z,22.70
2022-09-27T16:25:23.820Z,22.27
2022-09-27T16:27:52.576Z,23.67
2022-09-27T16:30:20.879Z,23.83
2022-09-27T16:32:48.981Z,23.50
2022-09-27T16:35:17.552Z,24.77
2022-09-27T16:37:45.444Z,25.02
2022-09-27T16:40:13.604Z,22.27
2022-09-27T16:42:41.430Z,20.65
2022-09-27T16:45:12.000Z,19.83
2022-09-27T16:47:42.327Z,19.58
2022-09-27T16:50:29.484Z,22.00
2022-09-27T16:52:57.221Z,24.77
2022-09-27T16:55:26.268Z,29.52
2022-09-27T16:57:54.132Z,29.05
2022-09-27T17:00:21.800Z,29.17
2022-09-27T17:02:49.828Z,33.60
2022-09-27T17:05:18.422Z,41.80
2022-09-27T17:07:46.299Z,48.45
2022-09-27T17:10:15.311Z,53.28
2022-09-27T17:12:44.541Z,48.45
2022-09-27T17:15:12.228Z,47.92
2022-09-27T17:17:39.946Z,51.63
2022-09-27T17:20:07.627Z,57.00
2022-09-27T17:22:35.380Z,53.45
2022-09-27T17:25:06.819Z,52.17
2022-09-27T17:27:36.496Z,44.67
2022-09-27T17:30:06.978Z,34.67
2022-09-27T17:32:34.991Z,34.20
2022-09-27T17:35:02.844Z,21.20
2022-09-27T17:37:30.559Z,17.95
2022-09-27T17:39:58.159Z,15.65
2022-09-27T17:42:25.924Z,23.83
2022-09-27T17:44:53.628Z,23.25
2022-09-27T17:47:39.596Z,26.58
2022-09-27T17:50:28.669Z,24.58
2022-09-27T17:52:57.424Z,18.77
2022-09-27T17:55:25.228Z,19.23
2022-09-27T17:57:52.976Z,18.90
2022-09-27T18:00:20.919Z,20.00
2022-09-27T18:02:48.712Z,19.42
2022-09-27T18:05:18.473Z,18.98
2022-09-27T18:07:47.825Z,16.52
2022-09-27T18:10:17.816Z,15.55
2022-09-27T18:12:45.525Z,17.20
2022-09-27T18:15:13.310Z,18.25
2022-09-27T18:17:41.034Z,20.55
2022-09-27T18:20:08.974Z,20.17
2022-09-27T18:22:36.701Z,22.35
2022-09-27T18:25:05.564Z,23.83
2022-09-27T18:27:34.747Z,40.50
2022-09-27T18:30:03.571Z,39.25
2022-09-27T18:32:31.371Z,41.80
2022-09-27T18:34:58.830Z,37.28
2022-09-27T18:37:27.203Z,37.78
2022-09-27T18:39:55.769Z,35.70
2022-09-27T18:42:23.392Z,40.45
2022-09-27T18:44:51.441Z,43.65
2022-09-27T18:47:19.307Z,48.30
2022-09-27T18:49:47.049Z,50.50
2022-09-27T18:52:15.182Z,56.20
2022-09-27T18:54:43.767Z,63.20
2022-09-27T18:57:11.358Z,72.07
2022-09-27T18:59:39.456Z,70.05
2022-09-27T19:02:07.154Z,66.88
2022-09-27T19:04:36.760Z,81.78
2022-09-27T19:07:04.506Z,77.80
2022-09-27T19:09:32.220Z,46.30
2022-09-27T19:12:02.444Z,42.30
2022-09-27T19:14:30.173Z,36.85
2022-09-27T19:16:57.689Z,26.23
2022-09-27T19:19:25.895Z,22.75
2022-09-27T19:21:53.456Z,21.02
2022-09-27T19:24:21.077Z,19.90
2022-09-27T19:26:53.743Z,22.98
2022-09-27T19:29:21.393Z,22.15
2022-09-27T19:31:48.949Z,28.95
2022-09-27T19:34:16.668Z,35.03
2022-09-27T19:36:44.287Z,39.80
2022-09-27T19:39:12.762Z,44.25
2022-09-27T19:41:40.466Z,48.25
2022-09-27T19:44:08.196Z,49.85
2022-09-27T19:46:36.069Z,44.60
2022-09-27T19:49:06.015Z,41.33
2022-09-27T19:51:34.185Z,41.55
2022-09-27T19:54:01.829Z,36.90
2022-09-27T19:56:29.833Z,28.52
2022-09-27T19:58:58.526Z,27.80
2022-09-27T20:01:26.329Z,27.20
2022-09-27T20:03:55.874Z,28.48
2022-09-27T20:06:23.828Z,27.95
2022-09-27T20:08:51.433Z,28.38
2022-09-27T20:11:20.440Z,28.38
2022-09-27T20:13:49.361Z,26.63
2022-09-27T20:16:20.429Z,26.30
2022-09-27T20:18:53.520Z,25.23
2022-09-27T20:21:22.045Z,28.05
2022-09-27T20:23:50.542Z,26.90
2022-09-27T20:26:19.035Z,27.48
2022-09-27T20:28:50.562Z,29.00
2022-09-27T20:31:21.483Z,29.05
2022-09-27T20:33:51.877Z,30.15
2022-09-27T20:36:23.500Z,30.10
2022-09-27T20:38:52.516Z,32.97
2022-09-27T20:41:22.872Z,32.95
2022-09-27T20:43:56.122Z,30.30
2022-09-27T20:46:24.538Z,29.48
2022-09-27T20:48:53.784Z,28.08
2022-09-27T20:51:21.562Z,28.05
2022-09-27T20:53:51.366Z,28.85
2022-09-27T20:56:40.724Z,26.05
2022-09-27T20:59:15.932Z,25.92
2022-09-27T21:01:48.182Z,26.75
2022-09-27T21:04:17.252Z,27.65
2022-09-27T21:06:44.975Z,27.60
2022-09-27T21:09:19.185Z,27.92
2022-09-27T21:11:47.824Z,27.08
2022-09-27T21:14:15.837Z,25.95
2022-09-27T21:16:44.083Z,26.60
2022-09-27T21:19:11.783Z,26.85
2022-09-27T21:21:39.899Z,24.00
2022-09-27T21:24:07.469Z,24.58
2022-09-27T21:26:36.204Z,23.92
2022-09-27T21:29:09.487Z,21.85
2022-09-27T21:31:38.172Z,21.80
2022-09-27T21:34:06.972Z,22.10
2022-09-27T21:36:36.438Z,21.85
2022-09-27T21:39:05.099Z,23.75
2022-09-27T21:41:34.964Z,21.48
2022-09-27T21:44:04.342Z,22.92
2022-09-27T21:46:31.971Z,23.20
2022-09-27T21:49:00.246Z,24.95
2022-09-27T21:51:37.668Z,27.02
2022-09-27T21:54:07.076Z,28.42
2022-09-27T21:56:36.815Z,33.42
2022-09-27T21:59:07.856Z,34.10
2022-09-27T22:01:36.199Z,30.50
2022-09-27T22:04:04.776Z,29.20
2022-09-27T22:06:34.324Z,27.92
2022-09-27T22:09:02.021Z,27.88
2022-09-27T22:11:37.621Z,28.13
2022-09-27T22:14:07.033Z,29.08
2022-09-27T22:16:36.209Z,28.90
2022-09-27T22:19:04.460Z,33.80
2022-09-27T22:21:34.041Z,26.33
2022-09-27T22:24:07.512Z,27.67
2022-09-27T22:26:37.491Z,25.67
2022-09-27T22:29:05.565Z,27.10
2022-09-27T22:31:33.343Z,26.35
2022-09-27T22:34:03.616Z,32.30
2022-09-27T22:36:31.686Z,25.92
2022-09-27T22:39:00.492Z,27.17
2022-09-27T22:41:30.578Z,25.58
2022-09-27T22:43:58.968Z,25.73
2022-09-27T22:46:26.699Z,25.75
2022-09-27T22:48:56.331Z,26.20
2022-09-27T22:51:23.985Z,26.50
2022-09-27T22:53:51.850Z,26.67
2022-09-27T22:56:20.222Z,25.88
2022-09-27T22:58:48.253Z,26.58
2022-09-27T23:01:19.441Z,27.13
2022-09-27T23:03:47.774Z,25.60
2022-09-27T23:06:16.456Z,25.75
2022-09-27T23:08:44.386Z,25.20
2022-09-27T23:11:13.056Z,26.95
2022-09-27T23:13:41.729Z,28.08
2022-09-27T23:16:13.861Z,45.08
2022-09-27T23:18:42.282Z,51.80
2022-09-27T23:21:11.746Z,76.22
2022-09-27T23:23:41.526Z,33.92
2022-09-27T23:26:10.987Z,40.95
2022-09-27T23:28:38.724Z,32.78
2022-09-27T23:31:13.901Z,28.15
2022-09-27T23:33:43.599Z,31.83
2022-09-27T23:36:15.453Z,29.58
2022-09-27T23:38:45.715Z,29.05
2022-09-27T23:41:13.974Z,28.02
2022-09-27T23:43:42.067Z,28.20
2022-09-27T23:46:09.831Z,27.90
2022-09-27T23:48:37.807Z,30.15
2022-09-27T23:51:06.776Z,31.10
2022-09-27T23:53:34.618Z,36.13
2022-09-27T23:56:23.276Z,35.10
2022-09-27T23:58:50.804Z,36.95
